Aérodrome :
LOGIN :

S'inscrire | Disclaimer

   EN    FR    IT 

 










Légende :    VFR   VFR Marginal   IFR   IFR Intensif   IFR Très Intensif
Visi : 
Plafond : 
>= 8 km
>= 3000ft
5 à 8 km
1000 à 3000 ft
1500m à 5 km
500 à 1000 ft
800 à 1500m
200 à 500 ft
< 800m
< 200 ft
Symboles :   Orages  Brouillard  Fortes neiges  Fortes précipitations  Vent > 20 kt
SIGMETs :   Divers  Orages  Givrage  Turbulence  Onde Orograph.  Cendres Volcan.







- Altitude de l'aérodrome : 427 ft
- Code IATA : CIA


LIRA - Roma Ciampino

DERNIER METAR :
  • 211750Z 17007KT CAVOK 15/07 Q1023

METARs EXPIRÉS :
  • 211720Z 18006KT CAVOK 17/05 Q1022
  • 211650Z 18007KT CAVOK 18/05 Q1022
  • 211620Z 18008KT CAVOK 19/06 Q1022
  • 211550Z 20007KT CAVOK 20/07 Q1022
  • 211520Z 22007KT 170V260 CAVOK 20/06 Q1021

TAF TAF LIRA
Valide du 21 à 18h jusqu'au 22 à 18h UTC


211700Z 2118/2218 02008KT CAVOK
BECMG 2210/2212 22010KT
Pas de NOTAMs connus pour ce terrain.
6 SIGMETs publiés pour la FIR Roma (LIRR) :
 
Turbulence forte
LIRR SIGMET 9 VALID 211800/212100 LIIB
LIRR ROMA FIR SEV TURB FCST WI N4109 E00929 - N4013 E00958 - N3857 E00930 - N3857 E00813 - N4104 E00807 - N4109 E00929 FL010/120 STNR NC=
Orages noyés dans la masse
LIRR SIGMET 8 VALID 211840/212040 LIIB
LIRR ROMA FIR EMBD TS FCST WI N3754 E01040 - N3810 E01201 - N3749 E01346 - N3718 E01457 - N3628 E01628 - N3628 E01131 - N3727 E01128 - N3754 E01040 TOP FL300 STNR NC=
Orages noyés dans la masse
LIRR SIGMET 7 VALID 211540/211840 LIIB
LIRR ROMA FIR EMBD TS FCST WI N3754 E01040 - N3810 E01201 - N3749 E01346 - N3718 E01457 - N3628 E01628 - N3628 E01131 - N3727 E01128 - N3754 E01040 TOP FL300 STNR NC=
Turbulence forte
LIRR SIGMET 6 VALID 211506/211800 LIIB
LIRR ROMA FIR SEV TURB FCST WI N4100 E00929 - N4009 E00941 - N3903 E00929 - N3910 E00850 - N4009 E00831 - N4047 E00859 - N4100 E00929 FL010/100 STNR NC=
Turbulence forte
LIRR SIGMET 5 VALID 211504/211800 LIIB
LIRR ROMA FIR SEV TURB FCST WI N3824 E01631 - N3731 E01525 - N3634 E01537 - N3659 E01213 - N3756 E01205 - N3804 E01406 - N3831 E01522 - N3907 E01558 - N3824 E01631 FL010/100 STNR NC=
Turbulence forte
LIRR SIGMET 10 VALID 211800/212100 LIIB
LIRR ROMA FIR SEV TURB FCST WI N3824 E01631 - N3731 E01525 - N3634 E01537 - N3732 E01205 - N3826 E01224 - N3821 E01407 - N3837 E01510 - N3915 E01550 - N3824 E01631 FL010/120 STNR NC=



MET'MAP, la Météo Aéronautique d'un coup d'oeil ! - Copyright ORBIFLY Décembre 2007 - Disclaimer

ORBIFLY MET'MAP TEAM :

Programmation & Développement : Alexandra Zaïnal
Conception & Développement : Baudouin d'Aumeries
Co-Programmation & Développement : Marc-Olivier Méhu
Soutien technique & logistique : Manuel Goepfert

Contact : metmap@orbifly.com




SOURCES & CREDITS :

   NOAA